Time;durP1;ratioP1;P1;durP2;ratioP2;P2;SDS_P1;SDS_P2;PMS_P1;PMS_P2;Temp;Humidity;BMP_temperature;BMP_pressure;BME280_temperature;BME280_humidity;BME280_pressure;Samples;Min_cycle;Max_cycle;Signal;HPM_P1;HPM_P2
2022/09/15 00:02:09;;;;;;;13.35;11.70;;;26.70;66.90;;;;;;5070888;28;20031;-79
2022/09/15 00:04:35;;;;;;;14.20;12.57;;;25.70;69.90;;;;;;5074222;28;20532;-78
2022/09/15 00:07:01;;;;;;;14.48;12.70;;;25.50;69.40;;;;;;5073964;28;20106;-78
2022/09/15 00:09:27;;;;;;;15.20;12.38;;;25.70;68.80;;;;;;5073312;28;20077;-78
2022/09/15 00:11:53;;;;;;;15.25;12.43;;;25.80;68.10;;;;;;5086342;28;20028;-80
2022/09/15 00:14:18;;;;;;;13.98;12.48;;;26.00;67.60;;;;;;5086062;28;20032;-76
2022/09/15 00:16:44;;;;;;;16.25;12.85;;;26.10;67.70;;;;;;5074185;28;20044;-77
2022/09/15 00:19:10;;;;;;;13.75;12.35;;;26.20;67.20;;;;;;5058420;28;20056;-76
2022/09/15 00:21:38;;;;;;;15.45;11.68;;;26.30;67.00;;;;;;5087803;28;20426;-77
2022/09/15 00:24:03;;;;;;;15.38;13.40;;;26.50;66.50;;;;;;5065216;28;20384;-77
2022/09/15 00:26:30;;;;;;;16.95;14.32;;;26.50;66.70;;;;;;5077425;28;20032;-76
2022/09/15 00:28:57;;;;;;;15.57;13.38;;;26.40;66.70;;;;;;5083593;28;20016;-78
2022/09/15 00:31:25;;;;;;;21.67;17.95;;;26.40;66.90;;;;;;5090988;28;20177;-78
2022/09/15 00:33:55;;;;;;;16.77;13.85;;;26.40;67.00;;;;;;5089480;28;20417;-76
2022/09/15 00:36:21;;;;;;;;;;;26.40;67.10;;;;;;5087221;28;20028;-76
2022/09/15 00:38:47;;;;;;;16.67;12.73;;;26.10;67.90;;;;;;5079587;28;19915;-76
2022/09/15 00:43:38;;;;;;;18.85;15.68;;;26.40;66.80;;;;;;5089289;28;20397;-75
2022/09/15 00:46:04;;;;;;;18.55;14.30;;;26.50;67.10;;;;;;5085398;28;20039;-78
2022/09/15 00:48:30;;;;;;;15.85;12.57;;;26.50;67.40;;;;;;5084770;28;20029;-75
2022/09/15 00:50:58;;;;;;;17.80;15.05;;;26.40;67.60;;;;;;5086510;28;20094;-78
2022/09/15 00:53:24;;;;;;;15.65;13.95;;;26.40;67.60;;;;;;5084675;28;20039;-75
2022/09/15 00:55:51;;;;;;;19.65;14.88;;;26.50;67.40;;;;;;5082365;28;20024;-74
2022/09/15 00:58:27;;;;;;;13.88;12.38;;;26.50;67.20;;;;;;5087464;28;20589;-74
2022/09/15 01:00:56;;;;;;;16.48;14.15;;;26.60;66.30;;;;;;5072798;28;20032;-77
2022/09/15 01:03:24;;;;;;;17.60;14.13;;;26.60;66.10;;;;;;5080403;28;20119;-76
2022/09/15 01:06:00;;;;;;;18.05;14.82;;;26.70;66.00;;;;;;5075173;28;20485;-78
2022/09/15 01:08:26;;;;;;;14.32;12.70;;;26.80;65.70;;;;;;5088641;28;20032;-78
2022/09/15 01:10:52;;;;;;;18.25;15.60;;;26.80;65.40;;;;;;5069066;28;20044;-76
2022/09/15 01:13:18;;;;;;;14.30;12.35;;;26.80;65.40;;;;;;5071979;28;20498;-76
2022/09/15 01:16:02;;;;;;;15.02;11.20;;;26.80;65.70;;;;;;5071388;28;20070;-76
2022/09/15 01:18:55;;;;;;;18.27;13.45;;;26.30;68.00;;;;;;5077076;28;20028;-76
2022/09/15 01:21:33;;;;;;;16.38;12.70;;;25.80;69.60;;;;;;5088414;28;20039;-73
2022/09/15 01:24:20;;;;;;;15.82;12.85;;;25.70;71.50;;;;;;5088017;28;20020;-75
2022/09/15 01:26:49;;;;;;;14.23;11.57;;;25.80;71.30;;;;;;5085736;28;20056;-76
2022/09/15 01:29:38;;;;;;;15.13;12.65;;;25.90;71.00;;;;;;5086182;28;20052;-76
2022/09/15 01:35:39;;;;;;;12.27;11.02;;;26.10;70.80;;;;;;5078592;28;20082;-79
2022/09/15 01:38:31;;;;;;;13.15;11.82;;;26.20;70.70;;;;;;5084918;28;20059;-75
2022/09/15 01:41:17;;;;;;;17.60;12.80;;;26.30;70.60;;;;;;5068424;28;20036;-77
2022/09/15 01:44:06;;;;;;;16.15;12.43;;;26.30;70.50;;;;;;5089099;28;20048;-76
2022/09/15 01:46:40;;;;;;;14.23;12.75;;;26.50;70.10;;;;;;5087867;28;20387;-77
2022/09/15 01:49:09;;;;;;;13.60;12.15;;;26.60;70.40;;;;;;5086719;28;20031;-80
2022/09/15 01:51:37;;;;;;;14.40;12.27;;;26.60;70.10;;;;;;5067277;28;20028;-78
2022/09/15 01:54:05;;;;;;;14.48;12.02;;;26.80;69.90;;;;;;5057765;28;20022;-76
2022/09/15 01:56:31;;;;;;;12.57;11.27;;;26.90;69.50;;;;;;5074349;28;20069;-79
2022/09/15 01:58:57;;;;;;;14.25;11.88;;;26.90;69.10;;;;;;5061551;28;20021;-77
2022/09/15 02:01:56;;;;;;;15.30;12.65;;;26.80;70.50;;;;;;5069994;28;20044;-75
2022/09/15 02:04:26;;;;;;;17.77;13.10;;;26.80;70.00;;;;;;5074247;28;20035;-76
2022/09/15 02:07:36;;;;;;;13.90;12.48;;;26.90;69.70;;;;;;5074143;28;20074;-78
2022/09/15 02:10:12;;;;;;;15.48;12.63;;;26.90;69.90;;;;;;5068523;28;20068;-77
2022/09/15 02:12:56;;;;;;;12.73;11.43;;;26.90;70.30;;;;;;5054071;28;20025;-78
2022/09/15 02:15:32;;;;;;;13.45;12.07;;;27.00;69.60;;;;;;5052762;28;20041;-79
2022/09/15 02:18:02;;;;;;;15.65;12.85;;;27.10;69.40;;;;;;5051538;28;20052;-76
2022/09/15 02:20:57;;;;;;;13.25;11.85;;;27.20;69.20;;;;;;5036417;28;20074;-77
2022/09/15 02:23:30;;;;;;;13.77;12.38;;;27.30;68.80;;;;;;5022694;28;20065;-76
2022/09/15 02:26:06;;;;;;;16.33;12.57;;;27.20;68.80;;;;;;5064436;28;20030;-77
2022/09/15 02:28:36;;;;;;;13.55;12.15;;;27.30;68.80;;;;;;5055405;28;20116;-75
2022/09/15 02:31:07;;;;;;;15.55;13.95;;;27.10;69.50;;;;;;5031351;28;20033;-79
2022/09/15 02:33:35;;;;;;;;;;;27.10;69.00;;;;;;5044076;28;20033;-77
2022/09/15 02:36:02;;;;;;;18.25;14.73;;;27.30;68.30;;;;;;5059093;28;19916;-76
2022/09/15 02:38:36;;;;;;;15.70;13.13;;;27.20;68.30;;;;;;5068287;28;20122;-77
2022/09/15 02:41:01;;;;;;;14.93;13.40;;;27.20;68.60;;;;;;5070049;28;20037;-78
2022/09/15 02:43:29;;;;;;;13.50;12.18;;;27.30;68.30;;;;;;5055087;28;20049;-77
2022/09/15 02:45:55;;;;;;;15.05;12.93;;;27.30;68.20;;;;;;5054795;28;20032;-79
2022/09/15 02:48:21;;;;;;;14.43;12.27;;;27.00;68.40;;;;;;5067414;28;20487;-79
2022/09/15 02:50:46;;;;;;;14.77;10.35;;;27.00;68.60;;;;;;5053998;28;20036;-79
2022/09/15 02:53:12;;;;;;;12.00;9.73;;;26.90;68.70;;;;;;5065178;28;20107;-79
2022/09/15 02:55:38;;;;;;;11.52;9.95;;;26.80;69.50;;;;;;5068029;28;20067;-80
2022/09/15 02:58:04;;;;;;;11.63;9.90;;;26.80;69.00;;;;;;5065824;28;20037;-78
2022/09/15 03:00:30;;;;;;;13.23;9.90;;;26.80;69.40;;;;;;5055726;28;20029;-78
2022/09/15 03:02:57;;;;;;;11.38;10.05;;;26.70;69.50;;;;;;5067474;28;20044;-78
2022/09/15 03:05:28;;;;;;;13.30;10.20;;;26.70;70.00;;;;;;5059016;28;20104;-80
2022/09/15 03:07:55;;;;;;;9.80;8.80;;;26.70;69.60;;;;;;5033179;28;20037;-79
2022/09/15 03:10:22;;;;;;;10.90;8.55;;;26.80;69.50;;;;;;5039040;28;20025;-81
2022/09/15 03:12:51;;;;;;;10.93;9.15;;;26.70;70.30;;;;;;5052673;28;20512;-77
2022/09/15 03:15:20;;;;;;;10.70;8.30;;;26.60;70.00;;;;;;5061243;28;20081;-76
2022/09/15 03:17:47;;;;;;;8.95;7.88;;;26.70;69.70;;;;;;5052933;28;20125;-76
2022/09/15 03:20:19;;;;;;;8.80;7.32;;;26.90;68.90;;;;;;5056979;28;20063;-77
2022/09/15 03:22:45;;;;;;;8.32;7.38;;;26.90;69.10;;;;;;5061387;28;20127;-78
2022/09/15 03:25:12;;;;;;;8.85;7.70;;;27.00;68.60;;;;;;5052273;28;20387;-78
2022/09/15 03:27:38;;;;;;;7.90;6.78;;;27.10;68.50;;;;;;5049202;28;20029;-77
2022/09/15 03:30:05;;;;;;;11.00;6.93;;;27.10;68.60;;;;;;5033704;28;20381;-81
2022/09/15 03:32:32;;;;;;;9.50;7.18;;;27.20;68.20;;;;;;5067742;28;20039;-81
2022/09/15 03:34:58;;;;;;;10.18;7.00;;;27.30;68.20;;;;;;5072757;28;20021;-80
2022/09/15 03:37:23;;;;;;;8.20;7.32;;;27.30;68.10;;;;;;5071145;28;20429;-79
2022/09/15 03:39:49;;;;;;;11.00;8.25;;;27.20;68.40;;;;;;5074063;28;20028;-83
2022/09/15 03:42:15;;;;;;;11.52;9.10;;;27.10;68.40;;;;;;5057724;28;20048;-76
2022/09/15 03:44:41;;;;;;;13.82;10.05;;;27.10;68.50;;;;;;5060171;28;20033;-76
2022/09/15 03:47:06;;;;;;;12.38;10.95;;;27.20;68.40;;;;;;5057480;28;20028;-80
2022/09/15 03:49:32;;;;;;;12.13;10.50;;;27.20;68.40;;;;;;5052729;28;20476;-85
2022/09/15 03:51:58;;;;;;;12.88;11.52;;;27.30;68.20;;;;;;5052536;28;20028;-85
2022/09/15 03:54:25;;;;;;;10.93;9.80;;;27.30;68.00;;;;;;5067590;28;20031;-83
2022/09/15 03:56:50;;;;;;;13.70;11.35;;;27.10;68.70;;;;;;5073041;28;20040;-81
2022/09/15 03:59:17;;;;;;;12.90;11.60;;;26.90;69.20;;;;;;5055650;28;20032;-82
2022/09/15 04:01:44;;;;;;;11.25;9.52;;;26.90;69.30;;;;;;5051854;28;20048;-79
2022/09/15 04:04:10;;;;;;;12.70;11.38;;;26.90;69.50;;;;;;5052049;28;20021;-81
2022/09/15 04:06:37;;;;;;;15.50;10.10;;;26.80;69.90;;;;;;5051204;28;20059;-81
2022/09/15 04:09:03;;;;;;;13.32;10.98;;;26.90;69.40;;;;;;5051092;28;20021;-85
2022/09/15 04:11:29;;;;;;;12.18;10.60;;;27.00;68.90;;;;;;5055039;28;20020;-83
2022/09/15 04:13:55;;;;;;;11.98;9.35;;;27.10;68.40;;;;;;5040478;28;20325;-82
2022/09/15 04:16:22;;;;;;;13.57;10.30;;;26.90;69.10;;;;;;5073270;28;20028;-82
2022/09/15 04:18:50;;;;;;;12.15;10.88;;;26.90;69.30;;;;;;5055881;28;20475;-81
2022/09/15 04:21:18;;;;;;;11.93;10.63;;;26.70;69.40;;;;;;5060854;28;20032;-78
2022/09/15 04:23:45;;;;;;;12.48;10.05;;;26.70;69.70;;;;;;5058099;28;20111;-82
2022/09/15 04:26:33;;;;;;;11.45;9.38;;;26.70;69.80;;;;;;5056164;28;20024;-82
2022/09/15 04:29:00;;;;;;;12.73;10.90;;;26.50;70.20;;;;;;5064074;28;20395;-84
2022/09/15 04:31:26;;;;;;;12.82;10.90;;;26.50;70.40;;;;;;5056766;28;20036;-75
2022/09/15 04:33:54;;;;;;;12.05;10.50;;;26.70;69.70;;;;;;5050851;28;20408;-83
2022/09/15 04:36:22;;;;;;;11.55;9.30;;;26.90;68.70;;;;;;5051182;28;20023;-82
2022/09/15 04:38:49;;;;;;;12.38;9.05;;;27.00;68.80;;;;;;5064379;28;20029;-78
2022/09/15 04:41:16;;;;;;;13.10;8.55;;;26.90;69.20;;;;;;5061796;28;20017;-76
2022/09/15 04:43:42;;;;;;;9.10;7.45;;;27.00;68.70;;;;;;5061112;28;20041;-80
2022/09/15 04:46:09;;;;;;;8.27;7.05;;;27.00;68.60;;;;;;5052842;28;20021;-82
2022/09/15 04:48:36;;;;;;;9.15;6.80;;;27.00;68.30;;;;;;5051405;28;20096;-82
2022/09/15 04:51:07;;;;;;;10.82;7.60;;;27.00;68.70;;;;;;5062149;28;20100;-81
2022/09/15 04:53:34;;;;;;;11.43;7.55;;;27.10;68.40;;;;;;5051629;28;20052;-83
2022/09/15 04:56:08;;;;;;;9.23;7.88;;;27.10;68.50;;;;;;5051591;28;20037;-83
2022/09/15 04:58:43;;;;;;;10.32;8.45;;;27.20;68.10;;;;;;5054536;28;20025;-83
2022/09/15 05:01:14;;;;;;;9.35;6.88;;;27.00;68.40;;;;;;5051586;28;20025;-79
2022/09/15 05:03:40;;;;;;;9.50;7.07;;;27.00;68.30;;;;;;5051578;28;20021;-75
2022/09/15 05:06:08;;;;;;;7.57;6.38;;;27.20;68.30;;;;;;5051861;28;20032;-83
2022/09/15 05:08:34;;;;;;;8.23;6.70;;;27.30;67.60;;;;;;5051321;28;20021;-77
2022/09/15 05:11:05;;;;;;;7.38;6.30;;;27.30;67.80;;;;;;5052871;28;20029;-84
2022/09/15 05:13:32;;;;;;;11.52;6.20;;;27.30;67.40;;;;;;5059120;28;20024;-81
2022/09/15 05:16:10;;;;;;;6.18;5.57;;;27.30;68.00;;;;;;5052140;28;20104;-83
2022/09/15 05:18:36;;;;;;;6.10;5.50;;;27.10;67.70;;;;;;5052787;28;20108;-79
2022/09/15 05:21:04;;;;;;;9.23;5.80;;;26.90;68.30;;;;;;5068358;28;20111;-84
2022/09/15 05:23:31;;;;;;;7.50;5.65;;;26.80;69.00;;;;;;5062108;28;20044;-85
2022/09/15 05:26:00;;;;;;;7.35;5.32;;;26.90;68.30;;;;;;5062213;28;20025;-77
2022/09/15 05:28:26;;;;;;;7.57;5.20;;;27.00;67.90;;;;;;5053061;28;20029;-77
2022/09/15 05:30:53;;;;;;;7.28;5.38;;;27.00;68.30;;;;;;5065033;28;20025;-84
2022/09/15 05:33:20;;;;;;;7.25;5.57;;;27.10;68.10;;;;;;5075296;28;20031;-85
2022/09/15 05:35:57;;;;;;;5.95;5.05;;;27.30;67.50;;;;;;5055112;28;20021;-79
2022/09/15 05:38:25;;;;;;;5.88;5.05;;;27.40;67.20;;;;;;5051585;28;20068;-87
2022/09/15 05:40:51;;;;;;;7.78;5.22;;;27.40;67.00;;;;;;5036569;28;20025;-89
2022/09/15 05:43:17;;;;;;;5.70;5.05;;;27.50;67.00;;;;;;5035881;28;20119;-82
2022/09/15 05:45:43;;;;;;;6.10;5.05;;;27.60;66.90;;;;;;5044585;28;20036;-86
2022/09/15 05:48:12;;;;;;;7.70;5.35;;;27.70;66.80;;;;;;5053530;28;20029;-78
2022/09/15 05:50:38;;;;;;;7.15;4.88;;;27.80;66.40;;;;;;5053936;28;20021;-78
2022/09/15 05:53:04;;;;;;;5.70;4.70;;;27.80;66.70;;;;;;5072822;28;20036;-79
2022/09/15 05:55:30;;;;;;;6.45;4.97;;;27.90;66.70;;;;;;5055396;28;20106;-77
2022/09/15 05:57:56;;;;;;;6.72;4.53;;;27.80;67.20;;;;;;5053652;28;20079;-88
2022/09/15 06:00:23;;;;;;;7.78;5.00;;;27.90;66.90;;;;;;5052545;28;20460;-84
2022/09/15 06:02:49;;;;;;;7.68;4.28;;;27.90;66.70;;;;;;5059834;28;20029;-92
2022/09/15 06:05:14;;;;;;;6.78;4.68;;;28.00;66.50;;;;;;5057628;28;20032;-89
2022/09/15 06:07:40;;;;;;;5.15;3.75;;;28.10;66.20;;;;;;5053354;28;20032;-82
2022/09/15 06:10:06;;;;;;;5.38;3.80;;;28.20;66.00;;;;;;5054632;28;20511;-88
2022/09/15 06:12:32;;;;;;;5.13;3.72;;;28.20;65.70;;;;;;5054540;28;20029;-94
2022/09/15 06:14:58;;;;;;;6.43;3.30;;;28.10;65.80;;;;;;5055449;28;20476;-94
2022/09/15 06:17:24;;;;;;;5.32;3.22;;;27.90;66.60;;;;;;5054148;28;20076;-85
2022/09/15 06:19:50;;;;;;;4.50;3.15;;;27.90;66.30;;;;;;5054456;28;20531;-87
2022/09/15 06:22:15;;;;;;;8.57;3.88;;;28.00;66.40;;;;;;5054948;28;20044;-90
2022/09/15 06:24:41;;;;;;;4.85;3.40;;;27.90;66.60;;;;;;5054367;28;20033;-81
2022/09/15 06:27:07;;;;;;;6.85;4.05;;;28.00;66.70;;;;;;5054598;28;20463;-82
2022/09/15 06:29:32;;;;;;;5.97;3.47;;;28.10;66.30;;;;;;5054126;28;20055;-92
2022/09/15 06:32:01;;;;;;;5.15;3.72;;;28.10;66.40;;;;;;5054406;28;20395;-78
2022/09/15 06:34:28;;;;;;;7.25;3.47;;;28.10;66.50;;;;;;5055676;28;20503;-93
2022/09/15 06:36:54;;;;;;;5.03;3.50;;;28.00;67.10;;;;;;5074874;28;20029;-89
2022/09/15 06:39:20;;;;;;;7.60;3.40;;;28.10;66.60;;;;;;5067530;28;20025;-87
2022/09/15 06:41:46;;;;;;;5.72;3.47;;;28.20;66.50;;;;;;5057363;28;20045;-77
2022/09/15 06:44:12;;;;;;;6.10;3.63;;;28.30;66.10;;;;;;5063676;28;20037;-90
2022/09/15 06:46:38;;;;;;;6.15;3.58;;;28.30;66.20;;;;;;5060795;28;20024;-89
2022/09/15 06:49:03;;;;;;;5.97;3.60;;;28.50;65.80;;;;;;5066289;28;20132;-77
2022/09/15 06:51:34;;;;;;;5.20;3.42;;;28.50;65.80;;;;;;5074853;28;20024;-89
2022/09/15 06:54:00;;;;;;;;;;;28.70;65.60;;;;;;5073566;28;20047;-84
2022/09/15 06:56:26;;;;;;;4.75;3.28;;;28.60;66.20;;;;;;5073742;28;19962;-76
2022/09/15 06:58:52;;;;;;;4.47;3.38;;;28.70;65.80;;;;;;5073566;28;20535;-80
2022/09/15 07:01:30;;;;;;;5.88;3.50;;;28.80;65.50;;;;;;5064443;28;20096;-77
2022/09/15 07:03:57;;;;;;;6.63;3.55;;;29.00;65.10;;;;;;4702777;28;9999859;-77
2022/09/15 07:06:26;;;;;;;5.00;3.35;;;29.00;64.90;;;;;;5071698;28;20375;-77
2022/09/15 07:08:52;;;;;;;8.15;3.13;;;29.00;65.00;;;;;;5048931;28;20417;-77
2022/09/15 07:11:19;;;;;;;5.07;3.38;;;29.10;65.00;;;;;;5049323;28;20086;-78
2022/09/15 07:13:47;;;;;;;5.78;3.20;;;29.10;64.90;;;;;;5049819;28;20029;-84
2022/09/15 07:16:13;;;;;;;6.35;3.17;;;29.00;64.80;;;;;;5049947;28;20031;-87
2022/09/15 07:18:39;;;;;;;5.78;3.38;;;28.80;65.20;;;;;;5049601;28;20151;-82
2022/09/15 07:21:09;;;;;;;5.28;3.30;;;28.80;65.40;;;;;;5050183;28;20163;-77
2022/09/15 07:23:35;;;;;;;4.25;3.03;;;28.90;65.40;;;;;;5046391;28;20036;-77
2022/09/15 07:26:05;;;;;;;5.20;3.22;;;28.90;65.50;;;;;;5052484;28;20028;-83
2022/09/15 07:28:32;;;;;;;;;;;28.90;65.80;;;;;;5054184;28;20025;-77
2022/09/15 07:30:57;;;;;;;10.25;3.42;;;28.90;65.60;;;;;;5052641;28;20042;-92
2022/09/15 07:33:23;;;;;;;6.28;3.55;;;28.80;65.80;;;;;;5053002;28;20380;-83
2022/09/15 07:35:48;;;;;;;5.70;3.30;;;28.80;66.00;;;;;;5052160;28;20596;-88
2022/09/15 07:38:14;;;;;;;6.07;3.40;;;28.90;65.70;;;;;;5053071;28;20547;-84
2022/09/15 07:40:40;;;;;;;5.55;3.10;;;29.20;65.80;;;;;;5051273;28;20025;-84
2022/09/15 07:43:06;;;;;;;7.80;3.30;;;29.30;65.20;;;;;;5052036;28;20048;-82
2022/09/15 07:45:31;;;;;;;6.00;2.95;;;29.40;65.60;;;;;;5050895;28;20053;-82
2022/09/15 07:47:57;;;;;;;7.70;3.30;;;29.60;65.90;;;;;;5050722;28;20543;-81
2022/09/15 07:50:23;;;;;;;7.95;3.55;;;29.80;65.80;;;;;;5051752;28;20028;-81
2022/09/15 07:52:48;;;;;;;5.68;3.40;;;29.70;65.70;;;;;;5051374;28;20025;-79
2022/09/15 07:55:14;;;;;;;4.57;3.30;;;29.80;65.20;;;;;;5051617;28;20049;-81
2022/09/15 07:57:40;;;;;;;5.78;2.88;;;29.90;65.50;;;;;;5052422;28;20025;-91
2022/09/15 08:00:06;;;;;;;5.78;3.35;;;29.90;65.30;;;;;;5052620;28;20024;-85
2022/09/15 08:02:32;;;;;;;7.25;3.10;;;29.80;65.00;;;;;;5052636;28;20055;-85
2022/09/15 08:04:58;;;;;;;6.60;2.75;;;29.80;64.90;;;;;;5052757;28;20388;-81
2022/09/15 08:07:23;;;;;;;5.32;2.60;;;30.20;64.60;;;;;;5053965;28;20491;-81
2022/09/15 08:09:49;;;;;;;5.47;2.60;;;30.50;63.70;;;;;;5052414;28;20525;-82
2022/09/15 08:12:15;;;;;;;5.20;3.20;;;30.60;62.70;;;;;;5053943;28;20043;-82
2022/09/15 08:14:41;;;;;;;6.25;2.63;;;30.50;63.20;;;;;;5052664;28;20410;-86
2022/09/15 08:17:07;;;;;;;3.83;2.58;;;30.40;61.90;;;;;;5053482;28;20029;-82
2022/09/15 08:19:34;;;;;;;5.90;2.50;;;30.40;62.50;;;;;;5053771;28;20280;-85
2022/09/15 08:22:01;;;;;;;4.47;2.10;;;30.60;61.70;;;;;;5053921;28;20036;-81
2022/09/15 08:24:27;;;;;;;7.90;2.90;;;30.40;60.10;;;;;;5054042;28;20033;-83
2022/09/15 08:26:53;;;;;;;4.13;2.30;;;30.00;61.10;;;;;;5053786;28;20080;-79
2022/09/15 08:29:22;;;;;;;4.10;2.35;;;30.00;61.80;;;;;;5052629;28;20033;-89
2022/09/15 08:31:48;;;;;;;4.53;2.47;;;30.20;60.50;;;;;;5053443;28;20048;-79
2022/09/15 08:34:15;;;;;;;4.93;2.20;;;30.30;60.80;;;;;;5052392;28;20043;-81
2022/09/15 08:36:41;;;;;;;4.97;2.28;;;30.30;60.70;;;;;;5052801;28;20456;-85
2022/09/15 08:39:10;;;;;;;5.70;2.30;;;30.30;60.10;;;;;;5052447;28;20430;-78
2022/09/15 08:41:45;;;;;;;3.80;2.15;;;30.30;61.40;;;;;;5052957;28;20032;-84
2022/09/15 08:44:42;;;;;;;4.38;2.15;;;30.30;60.80;;;;;;5052267;28;20503;-82
2022/09/15 08:47:31;;;;;;;4.13;2.13;;;30.30;60.40;;;;;;5052308;28;20025;-87
2022/09/15 08:50:01;;;;;;;3.70;1.92;;;30.50;59.90;;;;;;5052230;28;20024;-83
2022/09/15 08:52:41;;;;;;;4.28;2.08;;;30.80;59.70;;;;;;5053295;28;20036;-79
2022/09/15 08:55:47;;;;;;;4.25;2.10;;;31.00;60.10;;;;;;5051540;28;20029;-84
2022/09/15 08:58:16;;;;;;;8.82;2.20;;;31.00;59.40;;;;;;5052915;28;20103;-82
2022/09/15 09:00:44;;;;;;;4.80;2.00;;;30.80;59.10;;;;;;5052156;28;20380;-83
2022/09/15 09:03:28;;;;;;;6.50;2.30;;;30.80;59.20;;;;;;5053774;28;20033;-90
2022/09/15 09:06:13;;;;;;;4.63;2.65;;;30.70;58.40;;;;;;5056209;28;20025;-88
2022/09/15 09:08:49;;;;;;;4.55;1.95;;;30.80;58.60;;;;;;5057198;28;20043;-88
2022/09/15 09:11:23;;;;;;;5.65;2.10;;;30.80;58.30;;;;;;5057088;28;20021;-83
2022/09/15 09:14:13;;;;;;;4.22;2.20;;;30.90;58.50;;;;;;5056060;28;20328;-84
2022/09/15 09:17:06;;;;;;;6.55;2.13;;;31.10;58.10;;;;;;5055778;28;20037;-82
2022/09/15 09:20:00;;;;;;;8.20;2.58;;;31.20;58.40;;;;;;5057308;28;20021;-87
2022/09/15 09:22:32;;;;;;;4.68;1.90;;;31.30;58.90;;;;;;5055679;28;20044;-84
2022/09/15 09:25:05;;;;;;;4.50;2.10;;;31.50;58.40;;;;;;4014763;28;10000684;-79
2022/09/15 09:27:34;;;;;;;4.85;2.20;;;31.80;57.50;;;;;;5076744;28;20033;-78
2022/09/15 09:30:15;;;;;;;5.78;2.10;;;31.80;57.80;;;;;;5074986;28;20506;-84
2022/09/15 09:33:14;;;;;;;4.97;1.65;;;31.60;56.90;;;;;;5073842;28;20024;-82
2022/09/15 09:35:50;;;;;;;4.53;1.90;;;31.70;57.50;;;;;;5076760;28;20502;-84
2022/09/15 09:38:21;;;;;;;4.95;2.08;;;31.90;56.50;;;;;;5075407;28;20107;-83
2022/09/15 09:40:48;;;;;;;2.92;1.77;;;32.00;56.50;;;;;;5076521;28;20024;-85
2022/09/15 09:43:14;;;;;;;3.67;1.90;;;32.00;56.60;;;;;;5076116;28;20048;-84
2022/09/15 09:45:40;;;;;;;5.07;2.00;;;32.00;56.20;;;;;;5076231;28;20040;-86
2022/09/15 09:48:20;;;;;;;4.07;1.92;;;31.90;56.80;;;;;;5076654;28;20051;-85
2022/09/15 09:50:46;;;;;;;6.20;2.00;;;31.90;56.40;;;;;;5076436;28;20043;-86
2022/09/15 09:53:29;;;;;;;4.63;1.98;;;31.90;56.00;;;;;;5075226;28;20050;-91
2022/09/15 09:56:14;;;;;;;5.88;1.85;;;32.20;56.20;;;;;;5075537;28;20484;-85
2022/09/15 09:58:40;;;;;;;3.63;1.90;;;32.60;55.90;;;;;;5075123;28;20036;-77
2022/09/15 10:01:12;;;;;;;3.45;1.70;;;32.90;55.20;;;;;;5076490;28;20028;-81
2022/09/15 10:03:38;;;;;;;5.55;1.90;;;33.10;54.30;;;;;;5074436;28;20545;-75
2022/09/15 10:06:10;;;;;;;5.07;1.90;;;33.40;55.00;;;;;;5075447;28;20123;-91
2022/09/15 10:08:37;;;;;;;4.00;1.80;;;33.80;54.70;;;;;;5075939;28;20375;-82
2022/09/15 10:11:06;;;;;;;3.60;1.80;;;34.00;53.10;;;;;;5075968;28;20040;-84
2022/09/15 10:13:34;;;;;;;5.13;2.08;;;34.20;52.80;;;;;;5075520;28;20023;-79
2022/09/15 10:16:04;;;;;;;4.32;2.00;;;34.20;52.30;;;;;;5075992;28;20056;-86
2022/09/15 10:18:36;;;;;;;4.50;1.87;;;33.80;52.80;;;;;;5074977;28;20028;-88
2022/09/15 10:21:08;;;;;;;4.43;1.70;;;33.50;52.80;;;;;;5074473;28;20031;-80
2022/09/15 10:23:34;;;;;;;4.88;1.75;;;33.40;53.00;;;;;;5075315;28;20039;-81
2022/09/15 10:26:15;;;;;;;3.58;1.77;;;33.70;54.10;;;;;;5075592;28;20017;-82
2022/09/15 10:28:41;;;;;;;4.20;1.60;;;33.40;53.40;;;;;;5074227;28;20111;-82
2022/09/15 10:31:18;;;;;;;3.10;1.73;;;33.40;53.50;;;;;;5074157;28;20029;-89
2022/09/15 10:33:46;;;;;;;4.13;1.92;;;33.50;52.40;;;;;;5057176;28;20043;-82
2022/09/15 10:36:15;;;;;;;3.17;1.60;;;33.30;52.70;;;;;;5074579;28;20035;-87
2022/09/15 10:38:47;;;;;;;7.17;1.80;;;33.20;52.50;;;;;;5074058;28;20107;-84
2022/09/15 10:41:30;;;;;;;4.15;1.67;;;33.40;53.70;;;;;;5074309;28;20020;-81
2022/09/15 10:44:24;;;;;;;3.10;1.70;;;33.40;52.80;;;;;;5075397;28;20519;-82
2022/09/15 10:47:17;;;;;;;3.80;1.80;;;33.20;53.30;;;;;;5075200;28;20028;-80
2022/09/15 10:50:09;;;;;;;3.38;1.67;;;33.40;53.20;;;;;;5075131;28;20021;-87
2022/09/15 10:52:37;;;;;;;5.43;1.80;;;34.00;53.50;;;;;;5073912;28;20048;-86
2022/09/15 10:55:15;;;;;;;3.92;1.88;;;34.00;52.80;;;;;;5074673;28;20050;-89
2022/09/15 10:57:56;;;;;;;4.07;1.85;;;34.00;52.50;;;;;;5075312;28;20379;-78
2022/09/15 11:00:24;;;;;;;5.28;1.90;;;33.70;52.90;;;;;;5074732;28;20051;-80
2022/09/15 11:02:54;;;;;;;4.07;1.80;;;33.40;53.30;;;;;;5073383;28;20044;-84
2022/09/15 11:05:38;;;;;;;6.47;1.90;;;33.60;53.00;;;;;;5073524;28;20020;-81
2022/09/15 11:08:34;;;;;;;3.38;1.60;;;33.90;53.20;;;;;;5074813;28;20402;-78
2022/09/15 11:11:41;;;;;;;3.78;1.63;;;33.70;53.10;;;;;;5073252;28;20028;-79
2022/09/15 11:14:25;;;;;;;4.78;1.88;;;33.20;53.40;;;;;;5072834;28;20111;-84
2022/09/15 11:17:19;;;;;;;4.90;1.88;;;33.10;53.60;;;;;;5055599;28;20040;-84
2022/09/15 11:19:56;;;;;;;4.38;2.00;;;33.20;54.10;;;;;;5055800;28;20448;-81
2022/09/15 11:22:39;;;;;;;3.25;1.65;;;33.10;53.20;;;;;;5055232;28;20131;-80
2022/09/15 11:25:16;;;;;;;4.00;1.70;;;33.20;53.60;;;;;;5055439;28;20028;-85
2022/09/15 11:27:57;;;;;;;6.10;2.00;;;32.90;53.40;;;;;;5055101;28;20031;-82
2022/09/15 11:30:28;;;;;;;5.60;1.92;;;32.80;52.50;;;;;;5072393;28;20024;-79
2022/09/15 11:33:03;;;;;;;6.03;1.70;;;32.80;53.10;;;;;;5055218;28;20033;-82
2022/09/15 11:36:02;;;;;;;3.42;1.80;;;32.60;53.70;;;;;;5055601;28;20060;-86
2022/09/15 11:38:56;;;;;;;3.83;1.80;;;32.60;53.90;;;;;;5072386;28;20144;-84
2022/09/15 11:41:39;;;;;;;4.50;1.63;;;32.60;53.90;;;;;;5055062;28;20052;-82
2022/09/15 11:44:42;;;;;;;3.85;1.90;;;32.50;53.20;;;;;;5055010;28;20575;-85
2022/09/15 11:47:29;;;;;;;4.03;1.80;;;32.60;53.10;;;;;;5029900;28;20044;-86
2022/09/15 11:50:09;;;;;;;5.55;1.80;;;32.40;52.70;;;;;;5011888;28;20042;-85
2022/09/15 11:52:41;;;;;;;;;;;31.90;53.50;;;;;;5012596;28;20065;-84
2022/09/15 11:55:25;;;;;;;4.10;2.00;;;31.70;54.40;;;;;;5012020;28;20295;-82
2022/09/15 11:58:18;;;;;;;6.35;1.92;;;31.80;54.60;;;;;;5012117;28;20463;-80
2022/09/15 12:01:06;;;;;;;3.42;1.75;;;32.10;54.60;;;;;;5012508;28;20069;-79
2022/09/15 12:03:35;;;;;;;3.95;1.70;;;31.90;54.00;;;;;;5011595;28;20109;-83
2022/09/15 12:06:36;;;;;;;3.17;1.80;;;31.60;54.60;;;;;;5012089;28;20024;-86
2022/09/15 12:09:10;;;;;;;3.25;1.80;;;31.60;54.70;;;;;;5031567;28;20041;-87
2022/09/15 12:11:41;;;;;;;3.63;1.60;;;31.50;54.60;;;;;;5031398;28;20037;-79
2022/09/15 12:14:15;;;;;;;3.08;1.70;;;31.70;54.60;;;;;;5031071;28;20030;-76
2022/09/15 12:16:42;;;;;;;3.97;1.83;;;32.00;54.10;;;;;;5031124;28;20617;-78
2022/09/15 12:19:17;;;;;;;4.10;1.80;;;32.40;53.90;;;;;;5031206;28;20031;-79
2022/09/15 12:22:05;;;;;;;6.78;5.90;;;32.50;53.60;;;;;;5076993;28;20047;-80
2022/09/15 12:24:34;;;;;;;6.78;4.50;;;32.60;53.60;;;;;;5074149;28;20111;-86
2022/09/15 12:27:01;;;;;;;16.10;15.00;;;32.80;53.90;;;;;;5074379;28;20386;-83
2022/09/15 12:29:26;;;;;;;5.28;1.85;;;32.90;54.20;;;;;;5074012;28;20389;-78
2022/09/15 12:32:18;;;;;;;5.25;1.80;;;32.80;53.00;;;;;;5091458;28;20443;-82
2022/09/15 12:35:03;;;;;;;3.45;1.60;;;32.30;53.00;;;;;;5074783;28;20040;-79
2022/09/15 12:37:44;;;;;;;4.22;1.80;;;32.20;53.10;;;;;;5090857;28;20024;-80
2022/09/15 12:40:28;;;;;;;3.53;1.80;;;32.20;54.00;;;;;;5074570;28;20024;-77
2022/09/15 12:42:55;;;;;;;4.50;1.77;;;32.20;54.20;;;;;;5090823;28;20052;-78
2022/09/15 12:45:29;;;;;;;3.53;1.83;;;32.00;54.00;;;;;;5071054;28;20024;-80
2022/09/15 12:48:02;;;;;;;3.88;1.92;;;32.20;54.70;;;;;;5072528;28;20058;-82
2022/09/15 12:50:41;;;;;;;3.47;1.90;;;31.90;54.60;;;;;;5071633;28;20020;-78
2022/09/15 12:53:20;;;;;;;3.58;1.75;;;31.70;54.60;;;;;;5071819;28;20033;-78
2022/09/15 12:55:56;;;;;;;6.68;1.73;;;31.70;54.90;;;;;;5070636;28;20119;-77
2022/09/15 12:58:46;;;;;;;4.05;1.90;;;31.90;54.70;;;;;;5072496;28;20025;-78
2022/09/15 13:01:17;;;;;;;3.15;1.75;;;32.00;54.80;;;;;;5071317;28;20484;-77
2022/09/15 13:03:44;;;;;;;3.15;1.73;;;32.00;54.20;;;;;;5070979;28;20594;-78
2022/09/15 13:06:09;;;;;;;4.30;1.90;;;32.00;54.30;;;;;;5072476;28;20437;-77
2022/09/15 13:08:35;;;;;;;4.03;1.92;;;32.10;54.70;;;;;;5071180;28;20546;-79
2022/09/15 13:11:38;;;;;;;5.43;2.08;;;32.20;55.60;;;;;;5071063;28;20070;-78
2022/09/15 13:14:06;;;;;;;4.65;2.13;;;32.20;55.10;;;;;;5072443;28;20028;-81